sensor_id;sensor_type;location;lat;lon;timestamp;P1;durP1;ratioP1;P2;durP2;ratioP2
7080;SDS011;3582;51.506;11.948;2023-05-10T00:00:05;7.77;;;6.40;;
7080;SDS011;3582;51.506;11.948;2023-05-10T00:02:32;6.77;;;6.20;;
7080;SDS011;3582;51.506;11.948;2023-05-10T00:04:57;6.37;;;5.87;;
7080;SDS011;3582;51.506;11.948;2023-05-10T00:07:23;7.23;;;6.60;;
7080;SDS011;3582;51.506;11.948;2023-05-10T00:09:50;6.93;;;6.23;;
7080;SDS011;3582;51.506;11.948;2023-05-10T00:12:16;7.83;;;6.77;;
7080;SDS011;3582;51.506;11.948;2023-05-10T00:14:42;5.93;;;5.53;;
7080;SDS011;3582;51.506;11.948;2023-05-10T00:17:08;6.33;;;5.60;;
7080;SDS011;3582;51.506;11.948;2023-05-10T00:19:34;6.53;;;5.93;;
7080;SDS011;3582;51.506;11.948;2023-05-10T00:22:00;6.27;;;5.67;;
7080;SDS011;3582;51.506;11.948;2023-05-10T00:24:26;5.90;;;5.40;;
7080;SDS011;3582;51.506;11.948;2023-05-10T00:26:52;6.73;;;6.07;;
7080;SDS011;3582;51.506;11.948;2023-05-10T00:29:18;7.53;;;6.83;;
7080;SDS011;3582;51.506;11.948;2023-05-10T00:31:44;9.57;;;6.70;;
7080;SDS011;3582;51.506;11.948;2023-05-10T00:34:10;7.17;;;6.57;;
7080;SDS011;3582;51.506;11.948;2023-05-10T00:36:36;7.53;;;6.30;;
7080;SDS011;3582;51.506;11.948;2023-05-10T00:39:02;7.40;;;6.63;;
7080;SDS011;3582;51.506;11.948;2023-05-10T00:41:28;7.40;;;6.37;;
7080;SDS011;3582;51.506;11.948;2023-05-10T00:43:57;9.33;;;6.17;;
7080;SDS011;3582;51.506;11.948;2023-05-10T00:46:23;7.37;;;6.77;;
7080;SDS011;3582;51.506;11.948;2023-05-10T00:48:49;6.70;;;6.10;;
7080;SDS011;3582;51.506;11.948;2023-05-10T00:51:15;9.07;;;6.77;;
7080;SDS011;3582;51.506;11.948;2023-05-10T00:53:41;8.67;;;8.00;;
7080;SDS011;3582;51.506;11.948;2023-05-10T00:56:07;7.67;;;6.97;;
7080;SDS011;3582;51.506;11.948;2023-05-10T00:58:33;7.47;;;6.83;;
7080;SDS011;3582;51.506;11.948;2023-05-10T01:00:58;11.33;;;6.70;;
7080;SDS011;3582;51.506;11.948;2023-05-10T01:03:25;7.60;;;6.60;;
7080;SDS011;3582;51.506;11.948;2023-05-10T01:05:51;7.93;;;7.23;;
7080;SDS011;3582;51.506;11.948;2023-05-10T01:08:17;7.27;;;6.37;;
7080;SDS011;3582;51.506;11.948;2023-05-10T01:10:44;7.10;;;6.50;;
7080;SDS011;3582;51.506;11.948;2023-05-10T01:13:10;10.43;;;6.83;;
7080;SDS011;3582;51.506;11.948;2023-05-10T01:15:37;6.80;;;6.30;;
7080;SDS011;3582;51.506;11.948;2023-05-10T01:18:03;8.27;;;7.47;;
7080;SDS011;3582;51.506;11.948;2023-05-10T01:20:32;7.73;;;7.03;;
7080;SDS011;3582;51.506;11.948;2023-05-10T01:25:37;8.93;;;7.37;;
7080;SDS011;3582;51.506;11.948;2023-05-10T01:28:15;8.73;;;6.97;;
7080;SDS011;3582;51.506;11.948;2023-05-10T01:33:39;9.60;;;7.13;;
7080;SDS011;3582;51.506;11.948;2023-05-10T01:41:24;8.27;;;7.47;;
7080;SDS011;3582;51.506;11.948;2023-05-10T01:43:56;8.57;;;7.17;;
7080;SDS011;3582;51.506;11.948;2023-05-10T01:46:36;7.60;;;6.90;;
7080;SDS011;3582;51.506;11.948;2023-05-10T01:49:02;7.50;;;6.80;;
7080;SDS011;3582;51.506;11.948;2023-05-10T01:51:31;9.37;;;7.17;;
7080;SDS011;3582;51.506;11.948;2023-05-10T01:54:02;8.43;;;7.63;;
7080;SDS011;3582;51.506;11.948;2023-05-10T01:56:30;8.17;;;7.07;;
7080;SDS011;3582;51.506;11.948;2023-05-10T01:58:58;7.90;;;7.00;;
7080;SDS011;3582;51.506;11.948;2023-05-10T02:01:24;7.27;;;6.57;;
7080;SDS011;3582;51.506;11.948;2023-05-10T02:03:51;7.30;;;6.73;;
7080;SDS011;3582;51.506;11.948;2023-05-10T02:06:18;7.30;;;6.70;;
7080;SDS011;3582;51.506;11.948;2023-05-10T02:08:45;8.50;;;7.80;;
7080;SDS011;3582;51.506;11.948;2023-05-10T02:11:12;7.50;;;6.80;;
7080;SDS011;3582;51.506;11.948;2023-05-10T02:13:39;7.80;;;7.10;;
7080;SDS011;3582;51.506;11.948;2023-05-10T02:16:05;10.70;;;7.50;;
7080;SDS011;3582;51.506;11.948;2023-05-10T02:18:31;8.10;;;7.27;;
7080;SDS011;3582;51.506;11.948;2023-05-10T02:24:02;8.13;;;7.30;;
7080;SDS011;3582;51.506;11.948;2023-05-10T02:26:28;9.17;;;8.00;;
7080;SDS011;3582;51.506;11.948;2023-05-10T02:28:54;8.38;;;7.55;;
7080;SDS011;3582;51.506;11.948;2023-05-10T02:31:21;7.00;;;6.30;;
7080;SDS011;3582;51.506;11.948;2023-05-10T02:33:48;8.47;;;7.67;;
7080;SDS011;3582;51.506;11.948;2023-05-10T02:36:14;12.23;;;8.23;;
7080;SDS011;3582;51.506;11.948;2023-05-10T02:38:41;13.80;;;7.43;;
7080;SDS011;3582;51.506;11.948;2023-05-10T02:41:07;13.60;;;9.13;;
7080;SDS011;3582;51.506;11.948;2023-05-10T02:43:35;8.57;;;7.75;;
7080;SDS011;3582;51.506;11.948;2023-05-10T02:46:03;8.93;;;8.03;;
7080;SDS011;3582;51.506;11.948;2023-05-10T02:48:29;9.90;;;8.30;;
7080;SDS011;3582;51.506;11.948;2023-05-10T02:50:56;12.53;;;7.50;;
7080;SDS011;3582;51.506;11.948;2023-05-10T02:53:30;10.73;;;8.77;;
7080;SDS011;3582;51.506;11.948;2023-05-10T02:55:57;15.43;;;8.87;;
7080;SDS011;3582;51.506;11.948;2023-05-10T02:58:24;10.27;;;8.40;;
7080;SDS011;3582;51.506;11.948;2023-05-10T03:00:50;12.70;;;8.17;;
7080;SDS011;3582;51.506;11.948;2023-05-10T03:03:16;11.30;;;8.47;;
7080;SDS011;3582;51.506;11.948;2023-05-10T03:05:42;9.33;;;8.53;;
7080;SDS011;3582;51.506;11.948;2023-05-10T03:08:08;17.90;;;8.67;;
7080;SDS011;3582;51.506;11.948;2023-05-10T03:10:36;8.75;;;7.95;;
7080;SDS011;3582;51.506;11.948;2023-05-10T03:18:25;9.13;;;7.10;;
7080;SDS011;3582;51.506;11.948;2023-05-10T03:21:01;9.60;;;8.20;;
7080;SDS011;3582;51.506;11.948;2023-05-10T03:23:33;10.75;;;9.20;;
7080;SDS011;3582;51.506;11.948;2023-05-10T03:25:59;14.50;;;9.70;;
7080;SDS011;3582;51.506;11.948;2023-05-10T03:28:25;8.00;;;7.30;;
7080;SDS011;3582;51.506;11.948;2023-05-10T03:30:52;8.60;;;7.57;;
7080;SDS011;3582;51.506;11.948;2023-05-10T03:33:19;8.63;;;7.30;;
7080;SDS011;3582;51.506;11.948;2023-05-10T03:35:45;10.57;;;7.50;;
7080;SDS011;3582;51.506;11.948;2023-05-10T03:38:11;12.60;;;8.90;;
7080;SDS011;3582;51.506;11.948;2023-05-10T03:40:37;14.43;;;7.75;;
7080;SDS011;3582;51.506;11.948;2023-05-10T03:43:04;12.87;;;8.40;;
7080;SDS011;3582;51.506;11.948;2023-05-10T03:45:30;13.00;;;8.33;;
7080;SDS011;3582;51.506;11.948;2023-05-10T03:47:56;14.23;;;8.23;;
7080;SDS011;3582;51.506;11.948;2023-05-10T03:50:22;7.97;;;7.13;;
7080;SDS011;3582;51.506;11.948;2023-05-10T03:52:48;9.47;;;8.57;;
7080;SDS011;3582;51.506;11.948;2023-05-10T03:55:14;10.47;;;8.33;;
7080;SDS011;3582;51.506;11.948;2023-05-10T03:57:41;8.57;;;7.77;;
7080;SDS011;3582;51.506;11.948;2023-05-10T04:00:07;7.47;;;6.87;;
7080;SDS011;3582;51.506;11.948;2023-05-10T04:02:33;9.55;;;7.70;;
7080;SDS011;3582;51.506;11.948;2023-05-10T04:04:59;10.00;;;7.40;;
7080;SDS011;3582;51.506;11.948;2023-05-10T04:07:25;9.13;;;7.23;;
7080;SDS011;3582;51.506;11.948;2023-05-10T04:09:50;11.40;;;6.90;;
7080;SDS011;3582;51.506;11.948;2023-05-10T04:12:17;10.27;;;8.43;;
7080;SDS011;3582;51.506;11.948;2023-05-10T04:14:43;15.60;;;9.07;;
7080;SDS011;3582;51.506;11.948;2023-05-10T04:17:09;9.10;;;8.20;;
7080;SDS011;3582;51.506;11.948;2023-05-10T04:19:35;12.30;;;8.00;;
7080;SDS011;3582;51.506;11.948;2023-05-10T04:22:02;10.33;;;7.53;;
7080;SDS011;3582;51.506;11.948;2023-05-10T04:24:28;7.93;;;7.13;;
7080;SDS011;3582;51.506;11.948;2023-05-10T04:26:54;11.10;;;7.50;;
7080;SDS011;3582;51.506;11.948;2023-05-10T04:29:20;17.87;;;9.97;;
7080;SDS011;3582;51.506;11.948;2023-05-10T04:31:46;10.83;;;8.20;;
7080;SDS011;3582;51.506;11.948;2023-05-10T04:34:12;9.93;;;7.13;;
7080;SDS011;3582;51.506;11.948;2023-05-10T04:36:38;10.43;;;7.80;;
7080;SDS011;3582;51.506;11.948;2023-05-10T04:39:04;13.43;;;8.67;;
7080;SDS011;3582;51.506;11.948;2023-05-10T04:41:30;8.67;;;7.70;;
7080;SDS011;3582;51.506;11.948;2023-05-10T04:43:56;11.10;;;8.30;;
7080;SDS011;3582;51.506;11.948;2023-05-10T04:46:22;15.77;;;8.87;;
7080;SDS011;3582;51.506;11.948;2023-05-10T04:48:47;8.33;;;7.60;;
7080;SDS011;3582;51.506;11.948;2023-05-10T04:51:13;9.00;;;8.10;;
7080;SDS011;3582;51.506;11.948;2023-05-10T04:53:39;18.03;;;9.03;;
7080;SDS011;3582;51.506;11.948;2023-05-10T04:56:05;7.77;;;6.73;;
7080;SDS011;3582;51.506;11.948;2023-05-10T04:58:32;9.17;;;7.20;;
7080;SDS011;3582;51.506;11.948;2023-05-10T05:01:04;13.90;;;6.97;;
7080;SDS011;3582;51.506;11.948;2023-05-10T05:03:30;7.70;;;6.93;;
7080;SDS011;3582;51.506;11.948;2023-05-10T05:05:56;8.17;;;7.10;;
7080;SDS011;3582;51.506;11.948;2023-05-10T05:08:22;10.37;;;6.53;;
7080;SDS011;3582;51.506;11.948;2023-05-10T05:10:48;9.33;;;7.07;;
7080;SDS011;3582;51.506;11.948;2023-05-10T05:13:17;11.97;;;8.17;;
7080;SDS011;3582;51.506;11.948;2023-05-10T05:15:43;11.23;;;7.60;;
7080;SDS011;3582;51.506;11.948;2023-05-10T05:18:09;7.60;;;6.90;;
7080;SDS011;3582;51.506;11.948;2023-05-10T05:20:35;7.43;;;6.33;;
7080;SDS011;3582;51.506;11.948;2023-05-10T05:23:01;7.10;;;6.40;;
7080;SDS011;3582;51.506;11.948;2023-05-10T05:25:27;8.57;;;7.40;;
7080;SDS011;3582;51.506;11.948;2023-05-10T05:27:53;8.50;;;7.20;;
7080;SDS011;3582;51.506;11.948;2023-05-10T05:30:19;18.33;;;7.53;;
7080;SDS011;3582;51.506;11.948;2023-05-10T05:32:45;8.10;;;6.70;;
7080;SDS011;3582;51.506;11.948;2023-05-10T05:35:14;9.50;;;6.47;;
7080;SDS011;3582;51.506;11.948;2023-05-10T05:37:40;7.70;;;7.00;;
7080;SDS011;3582;51.506;11.948;2023-05-10T05:40:06;12.87;;;6.83;;
7080;SDS011;3582;51.506;11.948;2023-05-10T05:42:33;7.70;;;5.90;;
7080;SDS011;3582;51.506;11.948;2023-05-10T05:44:59;10.83;;;7.63;;
7080;SDS011;3582;51.506;11.948;2023-05-10T05:47:24;10.07;;;7.30;;
7080;SDS011;3582;51.506;11.948;2023-05-10T05:49:50;7.63;;;6.80;;
7080;SDS011;3582;51.506;11.948;2023-05-10T05:52:16;8.57;;;6.93;;
7080;SDS011;3582;51.506;11.948;2023-05-10T05:54:42;6.77;;;6.07;;
7080;SDS011;3582;51.506;11.948;2023-05-10T05:57:08;7.13;;;6.50;;
7080;SDS011;3582;51.506;11.948;2023-05-10T05:59:34;12.50;;;6.43;;
7080;SDS011;3582;51.506;11.948;2023-05-10T06:02:00;12.27;;;6.70;;
7080;SDS011;3582;51.506;11.948;2023-05-10T06:04:26;9.10;;;7.47;;
7080;SDS011;3582;51.506;11.948;2023-05-10T06:06:52;8.63;;;7.83;;
7080;SDS011;3582;51.506;11.948;2023-05-10T06:09:18;11.13;;;7.47;;
7080;SDS011;3582;51.506;11.948;2023-05-10T06:11:44;11.80;;;6.63;;
7080;SDS011;3582;51.506;11.948;2023-05-10T06:14:10;15.87;;;6.63;;
7080;SDS011;3582;51.506;11.948;2023-05-10T06:16:36;11.60;;;7.97;;
7080;SDS011;3582;51.506;11.948;2023-05-10T06:19:02;9.40;;;6.00;;
7080;SDS011;3582;51.506;11.948;2023-05-10T06:21:28;10.80;;;6.70;;
7080;SDS011;3582;51.506;11.948;2023-05-10T06:23:55;11.33;;;6.13;;
7080;SDS011;3582;51.506;11.948;2023-05-10T06:26:21;11.07;;;7.23;;
7080;SDS011;3582;51.506;11.948;2023-05-10T06:28:47;12.83;;;6.93;;
7080;SDS011;3582;51.506;11.948;2023-05-10T06:31:12;8.80;;;6.30;;
7080;SDS011;3582;51.506;11.948;2023-05-10T06:33:38;15.00;;;7.83;;
7080;SDS011;3582;51.506;11.948;2023-05-10T06:36:05;7.83;;;6.50;;
7080;SDS011;3582;51.506;11.948;2023-05-10T06:38:31;14.43;;;6.00;;
7080;SDS011;3582;51.506;11.948;2023-05-10T06:40:57;6.97;;;6.23;;
7080;SDS011;3582;51.506;11.948;2023-05-10T06:43:23;11.30;;;6.20;;
7080;SDS011;3582;51.506;11.948;2023-05-10T06:45:49;13.60;;;6.60;;
7080;SDS011;3582;51.506;11.948;2023-05-10T06:48:16;7.13;;;6.43;;
7080;SDS011;3582;51.506;11.948;2023-05-10T06:50:42;13.47;;;6.43;;
7080;SDS011;3582;51.506;11.948;2023-05-10T06:53:08;11.20;;;7.00;;
7080;SDS011;3582;51.506;11.948;2023-05-10T06:55:34;14.23;;;6.20;;
7080;SDS011;3582;51.506;11.948;2023-05-10T06:58:00;7.97;;;6.27;;
7080;SDS011;3582;51.506;11.948;2023-05-10T07:00:27;10.13;;;5.77;;
7080;SDS011;3582;51.506;11.948;2023-05-10T07:02:53;10.70;;;6.90;;
7080;SDS011;3582;51.506;11.948;2023-05-10T07:05:18;6.70;;;5.60;;
7080;SDS011;3582;51.506;11.948;2023-05-10T07:07:44;12.07;;;6.30;;
7080;SDS011;3582;51.506;11.948;2023-05-10T07:10:11;6.50;;;5.83;;
7080;SDS011;3582;51.506;11.948;2023-05-10T07:12:36;19.73;;;7.80;;
7080;SDS011;3582;51.506;11.948;2023-05-10T07:15:03;7.53;;;6.13;;
7080;SDS011;3582;51.506;11.948;2023-05-10T07:17:29;14.00;;;6.80;;
7080;SDS011;3582;51.506;11.948;2023-05-10T07:19:55;7.10;;;5.93;;
7080;SDS011;3582;51.506;11.948;2023-05-10T07:22:21;13.30;;;8.00;;
7080;SDS011;3582;51.506;11.948;2023-05-10T07:24:47;9.33;;;6.43;;
7080;SDS011;3582;51.506;11.948;2023-05-10T07:27:13;7.70;;;5.97;;
7080;SDS011;3582;51.506;11.948;2023-05-10T07:29:39;18.90;;;6.10;;
7080;SDS011;3582;51.506;11.948;2023-05-10T07:32:05;7.30;;;6.60;;
7080;SDS011;3582;51.506;11.948;2023-05-10T07:34:31;8.77;;;6.67;;
7080;SDS011;3582;51.506;11.948;2023-05-10T07:37:00;7.63;;;6.00;;
7080;SDS011;3582;51.506;11.948;2023-05-10T07:39:26;6.57;;;5.97;;
7080;SDS011;3582;51.506;11.948;2023-05-10T07:41:53;15.67;;;7.70;;
7080;SDS011;3582;51.506;11.948;2023-05-10T07:44:19;9.07;;;7.43;;
7080;SDS011;3582;51.506;11.948;2023-05-10T07:46:45;11.27;;;6.60;;
7080;SDS011;3582;51.506;11.948;2023-05-10T07:49:11;9.70;;;6.90;;
7080;SDS011;3582;51.506;11.948;2023-05-10T07:51:37;12.27;;;6.80;;
7080;SDS011;3582;51.506;11.948;2023-05-10T07:54:03;10.23;;;7.57;;
7080;SDS011;3582;51.506;11.948;2023-05-10T07:56:30;10.10;;;6.90;;
7080;SDS011;3582;51.506;11.948;2023-05-10T07:58:56;7.47;;;6.80;;
7080;SDS011;3582;51.506;11.948;2023-05-10T08:01:22;9.97;;;7.77;;
7080;SDS011;3582;51.506;11.948;2023-05-10T08:03:49;16.53;;;14.57;;
7080;SDS011;3582;51.506;11.948;2023-05-10T08:06:16;16.77;;;7.63;;
7080;SDS011;3582;51.506;11.948;2023-05-10T08:08:42;10.80;;;7.47;;
7080;SDS011;3582;51.506;11.948;2023-05-10T08:11:10;10.87;;;7.63;;
7080;SDS011;3582;51.506;11.948;2023-05-10T08:13:36;24.53;;;9.23;;
7080;SDS011;3582;51.506;11.948;2023-05-10T08:16:02;8.63;;;7.93;;
7080;SDS011;3582;51.506;11.948;2023-05-10T08:18:28;11.30;;;8.77;;
7080;SDS011;3582;51.506;11.948;2023-05-10T08:20:54;10.60;;;8.13;;
7080;SDS011;3582;51.506;11.948;2023-05-10T08:23:20;33.47;;;9.80;;
7080;SDS011;3582;51.506;11.948;2023-05-10T08:25:46;8.97;;;8.10;;
7080;SDS011;3582;51.506;11.948;2023-05-10T08:28:12;10.27;;;8.40;;
7080;SDS011;3582;51.506;11.948;2023-05-10T08:30:37;8.97;;;8.07;;
7080;SDS011;3582;51.506;11.948;2023-05-10T08:33:03;11.87;;;9.00;;
7080;SDS011;3582;51.506;11.948;2023-05-10T08:35:29;11.77;;;8.87;;
7080;SDS011;3582;51.506;11.948;2023-05-10T08:37:56;10.07;;;9.17;;
7080;SDS011;3582;51.506;11.948;2023-05-10T08:40:22;10.10;;;9.10;;
7080;SDS011;3582;51.506;11.948;2023-05-10T08:42:51;9.50;;;8.60;;
7080;SDS011;3582;51.506;11.948;2023-05-10T08:45:19;10.93;;;9.93;;
7080;SDS011;3582;51.506;11.948;2023-05-10T08:47:48;11.03;;;9.80;;
7080;SDS011;3582;51.506;11.948;2023-05-10T08:50:16;10.70;;;9.20;;
7080;SDS011;3582;51.506;11.948;2023-05-10T08:52:43;13.63;;;12.20;;
7080;SDS011;3582;51.506;11.948;2023-05-10T08:55:11;13.10;;;9.60;;
7080;SDS011;3582;51.506;11.948;2023-05-10T08:57:36;16.17;;;11.50;;
7080;SDS011;3582;51.506;11.948;2023-05-10T09:00:03;12.77;;;10.10;;
7080;SDS011;3582;51.506;11.948;2023-05-10T09:02:29;12.37;;;10.83;;
7080;SDS011;3582;51.506;11.948;2023-05-10T09:04:55;16.60;;;13.43;;
7080;SDS011;3582;51.506;11.948;2023-05-10T09:07:21;12.13;;;10.97;;
7080;SDS011;3582;51.506;11.948;2023-05-10T09:09:47;12.83;;;9.83;;
7080;SDS011;3582;51.506;11.948;2023-05-10T09:12:14;17.43;;;11.27;;
7080;SDS011;3582;51.506;11.948;2023-05-10T09:14:41;12.70;;;9.20;;
7080;SDS011;3582;51.506;11.948;2023-05-10T09:17:07;17.23;;;10.10;;
7080;SDS011;3582;51.506;11.948;2023-05-10T09:19:33;13.10;;;10.00;;
7080;SDS011;3582;51.506;11.948;2023-05-10T09:21:59;14.10;;;11.00;;
7080;SDS011;3582;51.506;11.948;2023-05-10T09:24:27;16.30;;;12.63;;
7080;SDS011;3582;51.506;11.948;2023-05-10T09:26:53;13.47;;;11.07;;
7080;SDS011;3582;51.506;11.948;2023-05-10T09:29:19;11.63;;;10.37;;
7080;SDS011;3582;51.506;11.948;2023-05-10T09:31:48;17.33;;;10.40;;
7080;SDS011;3582;51.506;11.948;2023-05-10T09:34:28;11.87;;;10.63;;
7080;SDS011;3582;51.506;11.948;2023-05-10T09:36:55;12.80;;;10.67;;
7080;SDS011;3582;51.506;11.948;2023-05-10T09:39:31;11.70;;;10.27;;
7080;SDS011;3582;51.506;11.948;2023-05-10T09:41:58;11.03;;;9.90;;
7080;SDS011;3582;51.506;11.948;2023-05-10T09:44:25;12.37;;;11.27;;
7080;SDS011;3582;51.506;11.948;2023-05-10T09:46:51;11.70;;;10.60;;
7080;SDS011;3582;51.506;11.948;2023-05-10T09:49:22;10.47;;;9.47;;
7080;SDS011;3582;51.506;11.948;2023-05-10T09:52:02;11.37;;;10.43;;
7080;SDS011;3582;51.506;11.948;2023-05-10T09:54:28;14.03;;;10.50;;
7080;SDS011;3582;51.506;11.948;2023-05-10T09:56:54;10.87;;;9.87;;
7080;SDS011;3582;51.506;11.948;2023-05-10T09:59:20;10.50;;;9.60;;
7080;SDS011;3582;51.506;11.948;2023-05-10T10:01:49;12.50;;;10.40;;
7080;SDS011;3582;51.506;11.948;2023-05-10T10:04:16;12.93;;;9.90;;
7080;SDS011;3582;51.506;11.948;2023-05-10T10:06:42;10.90;;;9.90;;
7080;SDS011;3582;51.506;11.948;2023-05-10T10:09:09;11.63;;;10.50;;
7080;SDS011;3582;51.506;11.948;2023-05-10T10:11:36;11.47;;;9.80;;
7080;SDS011;3582;51.506;11.948;2023-05-10T10:14:02;12.10;;;11.00;;
7080;SDS011;3582;51.506;11.948;2023-05-10T10:16:31;9.73;;;8.80;;
7080;SDS011;3582;51.506;11.948;2023-05-10T10:18:57;10.40;;;9.30;;
7080;SDS011;3582;51.506;11.948;2023-05-10T10:21:24;10.10;;;9.10;;
7080;SDS011;3582;51.506;11.948;2023-05-10T10:23:50;13.90;;;9.80;;
7080;SDS011;3582;51.506;11.948;2023-05-10T10:26:17;10.47;;;9.33;;
7080;SDS011;3582;51.506;11.948;2023-05-10T10:31:32;11.20;;;8.07;;
7080;SDS011;3582;51.506;11.948;2023-05-10T10:34:01;10.87;;;8.27;;
7080;SDS011;3582;51.506;11.948;2023-05-10T10:36:29;7.70;;;7.10;;
7080;SDS011;3582;51.506;11.948;2023-05-10T10:38:59;8.57;;;7.00;;
7080;SDS011;3582;51.506;11.948;2023-05-10T10:41:32;6.03;;;5.63;;
7080;SDS011;3582;51.506;11.948;2023-05-10T10:49:24;3.67;;;3.33;;
7080;SDS011;3582;51.506;11.948;2023-05-10T10:54:35;3.40;;;3.20;;
7080;SDS011;3582;51.506;11.948;2023-05-10T10:57:17;4.30;;;3.90;;
7080;SDS011;3582;51.506;11.948;2023-05-10T10:59:43;4.60;;;4.10;;
7080;SDS011;3582;51.506;11.948;2023-05-10T11:02:10;3.83;;;3.53;;
7080;SDS011;3582;51.506;11.948;2023-05-10T11:04:43;6.10;;;3.90;;
7080;SDS011;3582;51.506;11.948;2023-05-10T11:07:17;4.50;;;4.10;;
7080;SDS011;3582;51.506;11.948;2023-05-10T11:09:43;3.10;;;2.90;;
7080;SDS011;3582;51.506;11.948;2023-05-10T11:12:10;3.00;;;2.63;;
7080;SDS011;3582;51.506;11.948;2023-05-10T11:14:35;2.90;;;2.53;;
7080;SDS011;3582;51.506;11.948;2023-05-10T11:17:01;2.80;;;2.70;;
7080;SDS011;3582;51.506;11.948;2023-05-10T11:19:27;3.17;;;2.97;;
7080;SDS011;3582;51.506;11.948;2023-05-10T11:24:28;4.47;;;2.23;;
7080;SDS011;3582;51.506;11.948;2023-05-10T11:26:55;3.70;;;3.40;;
7080;SDS011;3582;51.506;11.948;2023-05-10T11:29:22;3.57;;;3.27;;
7080;SDS011;3582;51.506;11.948;2023-05-10T11:31:49;4.27;;;3.97;;
7080;SDS011;3582;51.506;11.948;2023-05-10T11:37:12;2.33;;;2.23;;
7080;SDS011;3582;51.506;11.948;2023-05-10T11:39:38;3.40;;;2.50;;
7080;SDS011;3582;51.506;11.948;2023-05-10T11:42:04;2.70;;;2.50;;
7080;SDS011;3582;51.506;11.948;2023-05-10T11:44:30;2.50;;;2.27;;
7080;SDS011;3582;51.506;11.948;2023-05-10T11:46:58;3.07;;;2.33;;
7080;SDS011;3582;51.506;11.948;2023-05-10T11:49:24;7.83;;;3.20;;
7080;SDS011;3582;51.506;11.948;2023-05-10T11:51:51;4.13;;;3.73;;
7080;SDS011;3582;51.506;11.948;2023-05-10T11:54:17;4.63;;;3.33;;
7080;SDS011;3582;51.506;11.948;2023-05-10T11:56:43;3.87;;;3.57;;
7080;SDS011;3582;51.506;11.948;2023-05-10T11:59:10;3.03;;;2.83;;
7080;SDS011;3582;51.506;11.948;2023-05-10T12:01:36;4.97;;;4.33;;
7080;SDS011;3582;51.506;11.948;2023-05-10T12:04:02;3.77;;;3.53;;
7080;SDS011;3582;51.506;11.948;2023-05-10T12:06:29;3.87;;;3.67;;
7080;SDS011;3582;51.506;11.948;2023-05-10T12:08:56;4.43;;;4.13;;
7080;SDS011;3582;51.506;11.948;2023-05-10T12:11:24;2.73;;;2.57;;
7080;SDS011;3582;51.506;11.948;2023-05-10T12:13:50;2.40;;;2.20;;
7080;SDS011;3582;51.506;11.948;2023-05-10T12:16:17;2.93;;;2.70;;
7080;SDS011;3582;51.506;11.948;2023-05-10T12:18:43;3.10;;;2.90;;
7080;SDS011;3582;51.506;11.948;2023-05-10T12:21:10;3.57;;;3.13;;
7080;SDS011;3582;51.506;11.948;2023-05-10T12:23:36;4.20;;;2.90;;
7080;SDS011;3582;51.506;11.948;2023-05-10T12:26:03;2.70;;;2.30;;
7080;SDS011;3582;51.506;11.948;2023-05-10T12:28:32;2.33;;;2.13;;
7080;SDS011;3582;51.506;11.948;2023-05-10T12:31:01;2.77;;;2.10;;
7080;SDS011;3582;51.506;11.948;2023-05-10T12:33:28;3.43;;;2.50;;
7080;SDS011;3582;51.506;11.948;2023-05-10T12:36:00;4.83;;;4.43;;
7080;SDS011;3582;51.506;11.948;2023-05-10T12:38:29;5.47;;;2.93;;
7080;SDS011;3582;51.506;11.948;2023-05-10T12:41:05;2.77;;;2.60;;
7080;SDS011;3582;51.506;11.948;2023-05-10T12:43:31;3.20;;;2.30;;
7080;SDS011;3582;51.506;11.948;2023-05-10T12:45:57;7.50;;;3.30;;
7080;SDS011;3582;51.506;11.948;2023-05-10T12:48:23;3.00;;;2.80;;
7080;SDS011;3582;51.506;11.948;2023-05-10T12:50:49;3.00;;;2.80;;
7080;SDS011;3582;51.506;11.948;2023-05-10T12:53:16;4.63;;;3.30;;
7080;SDS011;3582;51.506;11.948;2023-05-10T12:55:42;3.63;;;3.30;;
7080;SDS011;3582;51.506;11.948;2023-05-10T12:58:08;3.93;;;3.60;;
7080;SDS011;3582;51.506;11.948;2023-05-10T13:00:34;5.30;;;3.90;;
7080;SDS011;3582;51.506;11.948;2023-05-10T13:03:02;3.37;;;3.17;;
7080;SDS011;3582;51.506;11.948;2023-05-10T13:05:30;5.07;;;3.53;;
7080;SDS011;3582;51.506;11.948;2023-05-10T13:07:55;2.90;;;2.70;;
7080;SDS011;3582;51.506;11.948;2023-05-10T13:10:21;3.87;;;3.43;;
7080;SDS011;3582;51.506;11.948;2023-05-10T13:12:49;3.83;;;3.30;;
7080;SDS011;3582;51.506;11.948;2023-05-10T13:15:15;3.67;;;3.37;;
7080;SDS011;3582;51.506;11.948;2023-05-10T13:17:42;4.90;;;4.47;;
7080;SDS011;3582;51.506;11.948;2023-05-10T13:20:08;5.00;;;4.53;;
7080;SDS011;3582;51.506;11.948;2023-05-10T13:22:34;2.67;;;2.57;;
7080;SDS011;3582;51.506;11.948;2023-05-10T13:25:01;3.83;;;3.53;;
7080;SDS011;3582;51.506;11.948;2023-05-10T13:27:27;4.23;;;3.87;;
7080;SDS011;3582;51.506;11.948;2023-05-10T13:29:53;5.40;;;5.00;;
7080;SDS011;3582;51.506;11.948;2023-05-10T13:32:19;4.70;;;4.30;;
7080;SDS011;3582;51.506;11.948;2023-05-10T13:34:45;6.20;;;5.70;;
7080;SDS011;3582;51.506;11.948;2023-05-10T13:37:11;5.87;;;5.37;;
7080;SDS011;3582;51.506;11.948;2023-05-10T13:39:37;6.90;;;6.40;;
7080;SDS011;3582;51.506;11.948;2023-05-10T13:42:03;8.47;;;7.77;;
7080;SDS011;3582;51.506;11.948;2023-05-10T13:44:32;6.30;;;5.80;;
7080;SDS011;3582;51.506;11.948;2023-05-10T13:47:16;7.07;;;6.57;;
7080;SDS011;3582;51.506;11.948;2023-05-10T13:49:42;5.43;;;5.13;;
7080;SDS011;3582;51.506;11.948;2023-05-10T13:52:08;6.60;;;6.17;;
7080;SDS011;3582;51.506;11.948;2023-05-10T13:54:35;6.37;;;5.90;;
7080;SDS011;3582;51.506;11.948;2023-05-10T13:57:01;6.37;;;5.77;;
7080;SDS011;3582;51.506;11.948;2023-05-10T13:59:28;5.63;;;5.17;;
7080;SDS011;3582;51.506;11.948;2023-05-10T14:01:56;5.67;;;5.30;;
7080;SDS011;3582;51.506;11.948;2023-05-10T14:04:22;5.80;;;5.40;;
7080;SDS011;3582;51.506;11.948;2023-05-10T14:06:48;5.97;;;5.53;;
7080;SDS011;3582;51.506;11.948;2023-05-10T14:09:14;5.43;;;5.03;;
7080;SDS011;3582;51.506;11.948;2023-05-10T14:11:40;4.33;;;3.90;;
7080;SDS011;3582;51.506;11.948;2023-05-10T14:14:08;4.40;;;4.10;;
7080;SDS011;3582;51.506;11.948;2023-05-10T14:16:34;5.80;;;4.20;;
7080;SDS011;3582;51.506;11.948;2023-05-10T14:19:00;4.60;;;4.20;;
7080;SDS011;3582;51.506;11.948;2023-05-10T14:21:26;4.23;;;3.93;;
7080;SDS011;3582;51.506;11.948;2023-05-10T14:23:54;4.20;;;3.90;;
7080;SDS011;3582;51.506;11.948;2023-05-10T14:26:20;5.20;;;4.80;;
7080;SDS011;3582;51.506;11.948;2023-05-10T14:28:46;5.93;;;5.47;;
7080;SDS011;3582;51.506;11.948;2023-05-10T14:31:12;4.53;;;4.23;;
7080;SDS011;3582;51.506;11.948;2023-05-10T14:33:39;5.40;;;5.00;;
7080;SDS011;3582;51.506;11.948;2023-05-10T14:36:05;6.53;;;4.63;;
7080;SDS011;3582;51.506;11.948;2023-05-10T14:38:31;4.37;;;4.07;;
7080;SDS011;3582;51.506;11.948;2023-05-10T14:40:57;5.07;;;4.47;;
7080;SDS011;3582;51.506;11.948;2023-05-10T14:43:23;4.20;;;3.90;;
7080;SDS011;3582;51.506;11.948;2023-05-10T14:45:49;5.60;;;5.10;;
7080;SDS011;3582;51.506;11.948;2023-05-10T14:48:15;4.43;;;4.10;;
7080;SDS011;3582;51.506;11.948;2023-05-10T14:50:42;4.93;;;4.53;;
7080;SDS011;3582;51.506;11.948;2023-05-10T14:53:08;7.50;;;4.23;;
7080;SDS011;3582;51.506;11.948;2023-05-10T14:55:34;4.60;;;4.23;;
7080;SDS011;3582;51.506;11.948;2023-05-10T14:58:01;6.23;;;5.40;;
7080;SDS011;3582;51.506;11.948;2023-05-10T15:00:28;4.83;;;4.43;;
7080;SDS011;3582;51.506;11.948;2023-05-10T15:02:54;5.63;;;4.43;;
7080;SDS011;3582;51.506;11.948;2023-05-10T15:05:21;4.97;;;4.57;;
7080;SDS011;3582;51.506;11.948;2023-05-10T15:07:46;4.30;;;3.90;;
7080;SDS011;3582;51.506;11.948;2023-05-10T15:10:12;6.97;;;3.50;;
7080;SDS011;3582;51.506;11.948;2023-05-10T15:12:38;4.83;;;4.40;;
7080;SDS011;3582;51.506;11.948;2023-05-10T15:15:05;4.23;;;3.93;;
7080;SDS011;3582;51.506;11.948;2023-05-10T15:17:31;8.13;;;4.43;;
7080;SDS011;3582;51.506;11.948;2023-05-10T15:19:57;3.70;;;3.33;;
7080;SDS011;3582;51.506;11.948;2023-05-10T15:22:23;3.40;;;3.20;;
7080;SDS011;3582;51.506;11.948;2023-05-10T15:24:49;3.20;;;3.00;;
7080;SDS011;3582;51.506;11.948;2023-05-10T15:27:15;6.80;;;3.20;;